sensor_id;sensor_type;location;lat;lon;timestamp;P1;durP1;ratioP1;P2;durP2;ratioP2
19798;SDS011;10059;59.850;10.454;2023-04-24T00:02:02;2.37;;;1.90;;
19798;SDS011;10059;59.850;10.454;2023-04-24T00:04:30;2.13;;;1.93;;
19798;SDS011;10059;59.850;10.454;2023-04-24T00:06:57;2.33;;;1.80;;
19798;SDS011;10059;59.850;10.454;2023-04-24T00:09:25;2.50;;;1.60;;
19798;SDS011;10059;59.850;10.454;2023-04-24T00:11:52;2.30;;;1.80;;
19798;SDS011;10059;59.850;10.454;2023-04-24T00:14:19;2.60;;;1.97;;
19798;SDS011;10059;59.850;10.454;2023-04-24T00:16:46;2.47;;;1.97;;
19798;SDS011;10059;59.850;10.454;2023-04-24T00:19:13;2.23;;;1.80;;
19798;SDS011;10059;59.850;10.454;2023-04-24T00:21:41;2.10;;;1.90;;
19798;SDS011;10059;59.850;10.454;2023-04-24T00:24:08;3.30;;;1.87;;
19798;SDS011;10059;59.850;10.454;2023-04-24T00:26:35;2.53;;;1.93;;
19798;SDS011;10059;59.850;10.454;2023-04-24T00:29:01;2.40;;;1.93;;
19798;SDS011;10059;59.850;10.454;2023-04-24T00:31:28;4.00;;;1.80;;
19798;SDS011;10059;59.850;10.454;2023-04-24T00:33:55;3.17;;;2.10;;
19798;SDS011;10059;59.850;10.454;2023-04-24T00:36:22;2.60;;;2.00;;
19798;SDS011;10059;59.850;10.454;2023-04-24T00:38:50;2.40;;;1.90;;
19798;SDS011;10059;59.850;10.454;2023-04-24T00:41:17;2.50;;;2.00;;
19798;SDS011;10059;59.850;10.454;2023-04-24T00:43:44;2.97;;;1.83;;
19798;SDS011;10059;59.850;10.454;2023-04-24T00:46:11;4.33;;;2.13;;
19798;SDS011;10059;59.850;10.454;2023-04-24T00:48:39;3.67;;;2.50;;
19798;SDS011;10059;59.850;10.454;2023-04-24T00:51:06;2.90;;;2.07;;
19798;SDS011;10059;59.850;10.454;2023-04-24T00:53:33;2.57;;;1.77;;
19798;SDS011;10059;59.850;10.454;2023-04-24T00:56:01;2.47;;;1.90;;
19798;SDS011;10059;59.850;10.454;2023-04-24T00:58:28;2.57;;;2.13;;
19798;SDS011;10059;59.850;10.454;2023-04-24T01:00:55;3.57;;;2.13;;
19798;SDS011;10059;59.850;10.454;2023-04-24T01:03:24;2.80;;;2.10;;
19798;SDS011;10059;59.850;10.454;2023-04-24T01:05:54;2.30;;;1.93;;
19798;SDS011;10059;59.850;10.454;2023-04-24T01:08:21;2.43;;;1.83;;
19798;SDS011;10059;59.850;10.454;2023-04-24T01:10:50;5.40;;;2.10;;
19798;SDS011;10059;59.850;10.454;2023-04-24T01:13:20;2.37;;;2.00;;
19798;SDS011;10059;59.850;10.454;2023-04-24T01:15:46;2.37;;;1.97;;
19798;SDS011;10059;59.850;10.454;2023-04-24T01:18:14;2.77;;;1.90;;
19798;SDS011;10059;59.850;10.454;2023-04-24T01:20:41;2.67;;;1.87;;
19798;SDS011;10059;59.850;10.454;2023-04-24T01:23:10;3.00;;;1.97;;
19798;SDS011;10059;59.850;10.454;2023-04-24T01:25:37;3.80;;;2.60;;
19798;SDS011;10059;59.850;10.454;2023-04-24T01:28:04;3.83;;;2.00;;
19798;SDS011;10059;59.850;10.454;2023-04-24T01:30:31;2.80;;;1.97;;
19798;SDS011;10059;59.850;10.454;2023-04-24T01:32:58;2.83;;;1.90;;
19798;SDS011;10059;59.850;10.454;2023-04-24T01:35:25;3.53;;;2.10;;
19798;SDS011;10059;59.850;10.454;2023-04-24T01:37:52;2.50;;;2.00;;
19798;SDS011;10059;59.850;10.454;2023-04-24T01:40:21;3.33;;;1.80;;
19798;SDS011;10059;59.850;10.454;2023-04-24T01:42:47;3.20;;;1.80;;
19798;SDS011;10059;59.850;10.454;2023-04-24T01:45:14;3.50;;;1.97;;
19798;SDS011;10059;59.850;10.454;2023-04-24T01:47:41;2.97;;;1.90;;
19798;SDS011;10059;59.850;10.454;2023-04-24T01:50:09;3.07;;;1.90;;
19798;SDS011;10059;59.850;10.454;2023-04-24T01:52:36;2.20;;;1.87;;
19798;SDS011;10059;59.850;10.454;2023-04-24T01:55:03;2.30;;;2.00;;
19798;SDS011;10059;59.850;10.454;2023-04-24T01:57:33;2.90;;;2.03;;
19798;SDS011;10059;59.850;10.454;2023-04-24T02:00:00;2.50;;;1.97;;
19798;SDS011;10059;59.850;10.454;2023-04-24T02:02:29;2.53;;;2.10;;
19798;SDS011;10059;59.850;10.454;2023-04-24T02:04:56;2.90;;;2.10;;
19798;SDS011;10059;59.850;10.454;2023-04-24T02:07:23;2.60;;;1.97;;
19798;SDS011;10059;59.850;10.454;2023-04-24T02:09:50;2.33;;;1.73;;
19798;SDS011;10059;59.850;10.454;2023-04-24T02:12:17;3.00;;;2.00;;
19798;SDS011;10059;59.850;10.454;2023-04-24T02:14:45;2.57;;;2.00;;
19798;SDS011;10059;59.850;10.454;2023-04-24T02:17:12;2.63;;;1.77;;
19798;SDS011;10059;59.850;10.454;2023-04-24T02:19:40;3.37;;;1.90;;
19798;SDS011;10059;59.850;10.454;2023-04-24T02:22:07;4.13;;;2.10;;
19798;SDS011;10059;59.850;10.454;2023-04-24T02:24:35;3.60;;;1.90;;
19798;SDS011;10059;59.850;10.454;2023-04-24T02:27:02;2.80;;;2.10;;
19798;SDS011;10059;59.850;10.454;2023-04-24T02:29:29;2.00;;;1.77;;
19798;SDS011;10059;59.850;10.454;2023-04-24T02:31:58;4.17;;;2.07;;
19798;SDS011;10059;59.850;10.454;2023-04-24T02:34:24;3.13;;;2.00;;
19798;SDS011;10059;59.850;10.454;2023-04-24T02:36:51;3.47;;;2.10;;
19798;SDS011;10059;59.850;10.454;2023-04-24T02:39:18;2.70;;;1.83;;
19798;SDS011;10059;59.850;10.454;2023-04-24T02:41:45;2.40;;;1.83;;
19798;SDS011;10059;59.850;10.454;2023-04-24T02:44:12;1.83;;;1.60;;
19798;SDS011;10059;59.850;10.454;2023-04-24T02:46:39;2.43;;;1.73;;
19798;SDS011;10059;59.850;10.454;2023-04-24T02:49:08;2.40;;;1.70;;
19798;SDS011;10059;59.850;10.454;2023-04-24T02:51:36;1.73;;;1.60;;
19798;SDS011;10059;59.850;10.454;2023-04-24T02:54:06;2.43;;;1.70;;
19798;SDS011;10059;59.850;10.454;2023-04-24T02:56:33;2.87;;;1.70;;
19798;SDS011;10059;59.850;10.454;2023-04-24T02:58:59;4.00;;;1.70;;
19798;SDS011;10059;59.850;10.454;2023-04-24T03:01:26;1.67;;;1.47;;
19798;SDS011;10059;59.850;10.454;2023-04-24T03:03:53;1.80;;;1.50;;
19798;SDS011;10059;59.850;10.454;2023-04-24T03:06:21;2.37;;;1.60;;
19798;SDS011;10059;59.850;10.454;2023-04-24T03:08:48;2.17;;;1.60;;
19798;SDS011;10059;59.850;10.454;2023-04-24T03:11:15;1.97;;;1.57;;
19798;SDS011;10059;59.850;10.454;2023-04-24T03:13:42;1.60;;;1.50;;
19798;SDS011;10059;59.850;10.454;2023-04-24T03:16:08;1.90;;;1.70;;
19798;SDS011;10059;59.850;10.454;2023-04-24T03:18:35;2.10;;;1.47;;
19798;SDS011;10059;59.850;10.454;2023-04-24T03:21:02;2.10;;;1.50;;
19798;SDS011;10059;59.850;10.454;2023-04-24T03:23:31;2.03;;;1.57;;
19798;SDS011;10059;59.850;10.454;2023-04-24T03:25:58;3.73;;;1.63;;
19798;SDS011;10059;59.850;10.454;2023-04-24T03:28:24;1.30;;;1.20;;
19798;SDS011;10059;59.850;10.454;2023-04-24T03:30:51;2.13;;;1.50;;
19798;SDS011;10059;59.850;10.454;2023-04-24T03:33:18;2.20;;;1.33;;
19798;SDS011;10059;59.850;10.454;2023-04-24T03:35:45;1.70;;;1.40;;
19798;SDS011;10059;59.850;10.454;2023-04-24T03:38:12;3.00;;;1.40;;
19798;SDS011;10059;59.850;10.454;2023-04-24T03:40:40;1.50;;;1.40;;
19798;SDS011;10059;59.850;10.454;2023-04-24T03:43:07;1.93;;;1.40;;
19798;SDS011;10059;59.850;10.454;2023-04-24T03:45:34;2.53;;;1.20;;
19798;SDS011;10059;59.850;10.454;2023-04-24T03:48:00;2.50;;;1.37;;
19798;SDS011;10059;59.850;10.454;2023-04-24T03:50:27;2.90;;;1.70;;
19798;SDS011;10059;59.850;10.454;2023-04-24T03:52:55;1.67;;;1.43;;
19798;SDS011;10059;59.850;10.454;2023-04-24T03:55:21;2.07;;;1.40;;
19798;SDS011;10059;59.850;10.454;2023-04-24T03:57:50;2.20;;;1.30;;
19798;SDS011;10059;59.850;10.454;2023-04-24T04:00:16;2.23;;;1.37;;
19798;SDS011;10059;59.850;10.454;2023-04-24T04:02:43;2.20;;;1.67;;
19798;SDS011;10059;59.850;10.454;2023-04-24T04:05:10;2.67;;;1.60;;
19798;SDS011;10059;59.850;10.454;2023-04-24T04:07:37;2.17;;;1.60;;
19798;SDS011;10059;59.850;10.454;2023-04-24T04:10:04;1.47;;;1.20;;
19798;SDS011;10059;59.850;10.454;2023-04-24T04:12:33;1.77;;;1.13;;
19798;SDS011;10059;59.850;10.454;2023-04-24T04:15:01;1.50;;;1.13;;
19798;SDS011;10059;59.850;10.454;2023-04-24T04:17:28;1.87;;;1.20;;
19798;SDS011;10059;59.850;10.454;2023-04-24T04:19:55;1.50;;;1.30;;
19798;SDS011;10059;59.850;10.454;2023-04-24T04:22:22;1.73;;;1.40;;
19798;SDS011;10059;59.850;10.454;2023-04-24T04:24:49;1.43;;;1.10;;
19798;SDS011;10059;59.850;10.454;2023-04-24T04:27:16;2.63;;;1.20;;
19798;SDS011;10059;59.850;10.454;2023-04-24T04:29:43;1.10;;;1.00;;
19798;SDS011;10059;59.850;10.454;2023-04-24T04:32:12;4.23;;;0.90;;
19798;SDS011;10059;59.850;10.454;2023-04-24T04:34:38;1.00;;;0.80;;
19798;SDS011;10059;59.850;10.454;2023-04-24T04:37:05;1.03;;;0.90;;
19798;SDS011;10059;59.850;10.454;2023-04-24T04:39:32;0.67;;;0.60;;
19798;SDS011;10059;59.850;10.454;2023-04-24T04:41:59;1.47;;;0.80;;
19798;SDS011;10059;59.850;10.454;2023-04-24T04:44:26;0.60;;;0.60;;
19798;SDS011;10059;59.850;10.454;2023-04-24T04:46:53;0.87;;;0.60;;
19798;SDS011;10059;59.850;10.454;2023-04-24T04:49:22;0.70;;;0.70;;
19798;SDS011;10059;59.850;10.454;2023-04-24T04:51:49;0.87;;;0.70;;
19798;SDS011;10059;59.850;10.454;2023-04-24T04:54:16;1.20;;;0.80;;
19798;SDS011;10059;59.850;10.454;2023-04-24T04:56:43;1.33;;;0.90;;
19798;SDS011;10059;59.850;10.454;2023-04-24T04:59:10;0.93;;;0.80;;
19798;SDS011;10059;59.850;10.454;2023-04-24T05:01:37;1.83;;;0.80;;
19798;SDS011;10059;59.850;10.454;2023-04-24T05:04:05;1.37;;;0.97;;
19798;SDS011;10059;59.850;10.454;2023-04-24T05:06:33;1.60;;;1.00;;
19798;SDS011;10059;59.850;10.454;2023-04-24T05:09:00;2.53;;;1.10;;
19798;SDS011;10059;59.850;10.454;2023-04-24T05:11:28;1.03;;;0.80;;
19798;SDS011;10059;59.850;10.454;2023-04-24T05:13:55;1.70;;;1.00;;
19798;SDS011;10059;59.850;10.454;2023-04-24T05:16:22;1.97;;;1.00;;
19798;SDS011;10059;59.850;10.454;2023-04-24T05:18:49;1.30;;;0.80;;
19798;SDS011;10059;59.850;10.454;2023-04-24T05:21:15;1.17;;;0.90;;
19798;SDS011;10059;59.850;10.454;2023-04-24T05:23:44;1.17;;;0.90;;
19798;SDS011;10059;59.850;10.454;2023-04-24T05:26:10;1.70;;;0.90;;
19798;SDS011;10059;59.850;10.454;2023-04-24T05:28:37;0.90;;;0.90;;
19798;SDS011;10059;59.850;10.454;2023-04-24T05:31:05;1.47;;;0.80;;
19798;SDS011;10059;59.850;10.454;2023-04-24T05:33:31;1.67;;;0.97;;
19798;SDS011;10059;59.850;10.454;2023-04-24T05:35:58;1.33;;;0.87;;
19798;SDS011;10059;59.850;10.454;2023-04-24T05:38:25;1.00;;;0.80;;
19798;SDS011;10059;59.850;10.454;2023-04-24T05:40:53;0.80;;;0.80;;
19798;SDS011;10059;59.850;10.454;2023-04-24T05:43:20;2.20;;;0.83;;
19798;SDS011;10059;59.850;10.454;2023-04-24T05:45:47;1.03;;;0.90;;
19798;SDS011;10059;59.850;10.454;2023-04-24T05:48:14;1.90;;;1.10;;
19798;SDS011;10059;59.850;10.454;2023-04-24T05:50:41;1.87;;;1.10;;
19798;SDS011;10059;59.850;10.454;2023-04-24T05:53:07;2.07;;;1.30;;
19798;SDS011;10059;59.850;10.454;2023-04-24T05:55:35;2.67;;;0.97;;
19798;SDS011;10059;59.850;10.454;2023-04-24T05:58:04;1.43;;;1.00;;
19798;SDS011;10059;59.850;10.454;2023-04-24T06:00:31;1.47;;;0.90;;
19798;SDS011;10059;59.850;10.454;2023-04-24T06:02:59;1.57;;;1.00;;
19798;SDS011;10059;59.850;10.454;2023-04-24T06:05:26;1.10;;;0.80;;
19798;SDS011;10059;59.850;10.454;2023-04-24T06:07:53;1.30;;;0.90;;
19798;SDS011;10059;59.850;10.454;2023-04-24T06:10:20;2.23;;;1.10;;
19798;SDS011;10059;59.850;10.454;2023-04-24T06:12:46;1.33;;;0.97;;
19798;SDS011;10059;59.850;10.454;2023-04-24T06:15:15;2.23;;;1.30;;
19798;SDS011;10059;59.850;10.454;2023-04-24T06:17:42;2.43;;;1.40;;
19798;SDS011;10059;59.850;10.454;2023-04-24T06:20:09;5.00;;;2.07;;
19798;SDS011;10059;59.850;10.454;2023-04-24T06:22:36;2.67;;;1.67;;
19798;SDS011;10059;59.850;10.454;2023-04-24T06:25:05;5.17;;;1.70;;
19798;SDS011;10059;59.850;10.454;2023-04-24T06:27:32;2.80;;;1.40;;
19798;SDS011;10059;59.850;10.454;2023-04-24T06:30:00;2.17;;;1.33;;
19798;SDS011;10059;59.850;10.454;2023-04-24T06:32:28;3.13;;;1.30;;
19798;SDS011;10059;59.850;10.454;2023-04-24T06:34:55;2.60;;;1.30;;
19798;SDS011;10059;59.850;10.454;2023-04-24T06:37:22;7.80;;;2.50;;
19798;SDS011;10059;59.850;10.454;2023-04-24T06:39:49;2.10;;;1.30;;
19798;SDS011;10059;59.850;10.454;2023-04-24T06:42:16;4.00;;;1.13;;
19798;SDS011;10059;59.850;10.454;2023-04-24T06:44:45;1.90;;;1.30;;
19798;SDS011;10059;59.850;10.454;2023-04-24T06:47:12;2.17;;;1.37;;
19798;SDS011;10059;59.850;10.454;2023-04-24T06:49:41;2.40;;;1.33;;
19798;SDS011;10059;59.850;10.454;2023-04-24T06:52:08;2.87;;;1.50;;
19798;SDS011;10059;59.850;10.454;2023-04-24T06:54:35;2.57;;;1.50;;
19798;SDS011;10059;59.850;10.454;2023-04-24T06:57:01;2.23;;;1.37;;
19798;SDS011;10059;59.850;10.454;2023-04-24T06:59:28;1.80;;;1.10;;
19798;SDS011;10059;59.850;10.454;2023-04-24T07:01:56;3.13;;;1.30;;
19798;SDS011;10059;59.850;10.454;2023-04-24T07:04:23;2.00;;;1.30;;
19798;SDS011;10059;59.850;10.454;2023-04-24T07:06:52;2.73;;;1.60;;
19798;SDS011;10059;59.850;10.454;2023-04-24T07:09:21;2.90;;;1.50;;
19798;SDS011;10059;59.850;10.454;2023-04-24T07:11:48;3.17;;;1.70;;
19798;SDS011;10059;59.850;10.454;2023-04-24T07:14:15;3.00;;;1.70;;
19798;SDS011;10059;59.850;10.454;2023-04-24T07:16:42;2.33;;;1.40;;
19798;SDS011;10059;59.850;10.454;2023-04-24T07:19:10;2.57;;;1.37;;
19798;SDS011;10059;59.850;10.454;2023-04-24T07:21:37;2.73;;;1.60;;
19798;SDS011;10059;59.850;10.454;2023-04-24T07:24:05;3.00;;;1.70;;
19798;SDS011;10059;59.850;10.454;2023-04-24T07:26:34;4.57;;;2.03;;
19798;SDS011;10059;59.850;10.454;2023-04-24T07:29:01;5.20;;;2.07;;
19798;SDS011;10059;59.850;10.454;2023-04-24T07:31:28;4.83;;;2.03;;
19798;SDS011;10059;59.850;10.454;2023-04-24T07:33:55;3.33;;;1.93;;
19798;SDS011;10059;59.850;10.454;2023-04-24T07:36:23;6.83;;;2.20;;
19798;SDS011;10059;59.850;10.454;2023-04-24T07:38:51;5.30;;;2.07;;
19798;SDS011;10059;59.850;10.454;2023-04-24T07:41:19;4.87;;;2.00;;
19798;SDS011;10059;59.850;10.454;2023-04-24T07:43:46;4.90;;;2.00;;
19798;SDS011;10059;59.850;10.454;2023-04-24T07:46:13;5.13;;;2.37;;
19798;SDS011;10059;59.850;10.454;2023-04-24T07:48:40;3.47;;;2.17;;
19798;SDS011;10059;59.850;10.454;2023-04-24T07:51:07;4.27;;;2.33;;
19798;SDS011;10059;59.850;10.454;2023-04-24T07:53:35;4.33;;;2.07;;
19798;SDS011;10059;59.850;10.454;2023-04-24T07:56:02;3.73;;;2.13;;
19798;SDS011;10059;59.850;10.454;2023-04-24T07:58:30;3.50;;;2.23;;
19798;SDS011;10059;59.850;10.454;2023-04-24T08:00:57;5.60;;;2.20;;
19798;SDS011;10059;59.850;10.454;2023-04-24T08:03:24;4.17;;;2.23;;
19798;SDS011;10059;59.850;10.454;2023-04-24T08:05:50;4.97;;;1.90;;
19798;SDS011;10059;59.850;10.454;2023-04-24T08:08:17;2.60;;;1.90;;
19798;SDS011;10059;59.850;10.454;2023-04-24T08:10:45;2.87;;;1.70;;
19798;SDS011;10059;59.850;10.454;2023-04-24T08:13:12;4.03;;;2.00;;
19798;SDS011;10059;59.850;10.454;2023-04-24T08:15:40;3.10;;;1.80;;
19798;SDS011;10059;59.850;10.454;2023-04-24T08:18:07;3.87;;;1.90;;
19798;SDS011;10059;59.850;10.454;2023-04-24T08:20:36;3.90;;;1.80;;
19798;SDS011;10059;59.850;10.454;2023-04-24T08:23:03;4.73;;;1.87;;
19798;SDS011;10059;59.850;10.454;2023-04-24T08:25:30;4.83;;;1.97;;
19798;SDS011;10059;59.850;10.454;2023-04-24T08:27:57;3.67;;;2.20;;
19798;SDS011;10059;59.850;10.454;2023-04-24T08:30:24;3.37;;;2.23;;
19798;SDS011;10059;59.850;10.454;2023-04-24T08:32:52;3.23;;;2.10;;
19798;SDS011;10059;59.850;10.454;2023-04-24T08:35:19;4.33;;;1.90;;
19798;SDS011;10059;59.850;10.454;2023-04-24T08:37:46;3.17;;;1.63;;
19798;SDS011;10059;59.850;10.454;2023-04-24T08:40:14;2.70;;;1.70;;
19798;SDS011;10059;59.850;10.454;2023-04-24T08:42:42;2.73;;;1.60;;
19798;SDS011;10059;59.850;10.454;2023-04-24T08:45:11;6.23;;;1.80;;
19798;SDS011;10059;59.850;10.454;2023-04-24T08:47:38;3.03;;;1.50;;
19798;SDS011;10059;59.850;10.454;2023-04-24T08:50:08;2.50;;;1.70;;
19798;SDS011;10059;59.850;10.454;2023-04-24T08:52:35;2.83;;;1.83;;
19798;SDS011;10059;59.850;10.454;2023-04-24T08:55:02;3.40;;;1.90;;
19798;SDS011;10059;59.850;10.454;2023-04-24T08:57:29;2.80;;;1.80;;
19798;SDS011;10059;59.850;10.454;2023-04-24T08:59:58;6.33;;;2.23;;
19798;SDS011;10059;59.850;10.454;2023-04-24T09:02:26;5.73;;;1.80;;
19798;SDS011;10059;59.850;10.454;2023-04-24T09:04:53;4.60;;;1.87;;
19798;SDS011;10059;59.850;10.454;2023-04-24T09:07:23;3.60;;;2.00;;
19798;SDS011;10059;59.850;10.454;2023-04-24T09:09:51;4.77;;;1.93;;
19798;SDS011;10059;59.850;10.454;2023-04-24T09:12:18;4.73;;;2.10;;
19798;SDS011;10059;59.850;10.454;2023-04-24T09:14:45;2.67;;;1.80;;
19798;SDS011;10059;59.850;10.454;2023-04-24T09:17:12;2.43;;;1.60;;
19798;SDS011;10059;59.850;10.454;2023-04-24T09:19:39;3.47;;;1.93;;
19798;SDS011;10059;59.850;10.454;2023-04-24T09:22:06;3.90;;;1.90;;
19798;SDS011;10059;59.850;10.454;2023-04-24T09:24:35;3.33;;;1.80;;
19798;SDS011;10059;59.850;10.454;2023-04-24T09:27:02;3.83;;;1.90;;
19798;SDS011;10059;59.850;10.454;2023-04-24T09:29:30;4.13;;;2.20;;
19798;SDS011;10059;59.850;10.454;2023-04-24T09:31:57;3.53;;;2.17;;
19798;SDS011;10059;59.850;10.454;2023-04-24T09:34:25;3.83;;;2.30;;
19798;SDS011;10059;59.850;10.454;2023-04-24T09:36:53;2.97;;;2.00;;
19798;SDS011;10059;59.850;10.454;2023-04-24T09:39:20;3.43;;;2.30;;
19798;SDS011;10059;59.850;10.454;2023-04-24T09:41:49;5.17;;;2.10;;
19798;SDS011;10059;59.850;10.454;2023-04-24T09:44:18;3.97;;;2.13;;
19798;SDS011;10059;59.850;10.454;2023-04-24T09:46:49;3.80;;;2.40;;
19798;SDS011;10059;59.850;10.454;2023-04-24T09:49:21;4.70;;;2.30;;
19798;SDS011;10059;59.850;10.454;2023-04-24T09:51:49;5.37;;;2.30;;
19798;SDS011;10059;59.850;10.454;2023-04-24T09:54:17;7.07;;;2.57;;
19798;SDS011;10059;59.850;10.454;2023-04-24T09:56:46;4.13;;;2.43;;
19798;SDS011;10059;59.850;10.454;2023-04-24T09:59:17;5.37;;;2.63;;
19798;SDS011;10059;59.850;10.454;2023-04-24T10:01:44;4.33;;;2.57;;
19798;SDS011;10059;59.850;10.454;2023-04-24T10:04:17;4.43;;;2.70;;
19798;SDS011;10059;59.850;10.454;2023-04-24T10:06:44;5.00;;;2.90;;
19798;SDS011;10059;59.850;10.454;2023-04-24T10:09:13;5.67;;;2.63;;
19798;SDS011;10059;59.850;10.454;2023-04-24T10:11:41;9.27;;;3.30;;
19798;SDS011;10059;59.850;10.454;2023-04-24T10:14:10;5.07;;;2.93;;
19798;SDS011;10059;59.850;10.454;2023-04-24T10:16:40;6.43;;;3.33;;
19798;SDS011;10059;59.850;10.454;2023-04-24T10:19:08;8.20;;;3.33;;
19798;SDS011;10059;59.850;10.454;2023-04-24T10:21:35;7.53;;;2.87;;
19798;SDS011;10059;59.850;10.454;2023-04-24T10:24:07;5.30;;;2.73;;
19798;SDS011;10059;59.850;10.454;2023-04-24T10:26:35;4.30;;;2.53;;
19798;SDS011;10059;59.850;10.454;2023-04-24T10:29:02;6.73;;;3.17;;
19798;SDS011;10059;59.850;10.454;2023-04-24T10:31:34;3.53;;;2.13;;
19798;SDS011;10059;59.850;10.454;2023-04-24T10:34:03;5.73;;;2.10;;
19798;SDS011;10059;59.850;10.454;2023-04-24T10:36:31;4.00;;;2.10;;
19798;SDS011;10059;59.850;10.454;2023-04-24T10:39:00;3.43;;;1.93;;
19798;SDS011;10059;59.850;10.454;2023-04-24T10:41:29;2.73;;;2.03;;
19798;SDS011;10059;59.850;10.454;2023-04-24T10:44:05;4.63;;;2.60;;
19798;SDS011;10059;59.850;10.454;2023-04-24T10:46:33;3.53;;;1.83;;
19798;SDS011;10059;59.850;10.454;2023-04-24T10:49:04;4.13;;;1.80;;
19798;SDS011;10059;59.850;10.454;2023-04-24T10:51:44;2.57;;;1.90;;
19798;SDS011;10059;59.850;10.454;2023-04-24T10:54:24;4.57;;;2.00;;
19798;SDS011;10059;59.850;10.454;2023-04-24T10:56:52;2.90;;;1.67;;
19798;SDS011;10059;59.850;10.454;2023-04-24T10:59:26;2.70;;;1.70;;
19798;SDS011;10059;59.850;10.454;2023-04-24T11:02:02;2.30;;;1.47;;
19798;SDS011;10059;59.850;10.454;2023-04-24T11:04:31;2.07;;;1.43;;
19798;SDS011;10059;59.850;10.454;2023-04-24T11:07:00;3.90;;;1.50;;
19798;SDS011;10059;59.850;10.454;2023-04-24T11:09:28;3.13;;;1.60;;
19798;SDS011;10059;59.850;10.454;2023-04-24T11:12:03;2.93;;;1.50;;
19798;SDS011;10059;59.850;10.454;2023-04-24T11:17:28;1.93;;;1.37;;
19798;SDS011;10059;59.850;10.454;2023-04-24T11:20:02;2.13;;;1.40;;
19798;SDS011;10059;59.850;10.454;2023-04-24T11:22:32;1.83;;;1.53;;
19798;SDS011;10059;59.850;10.454;2023-04-24T11:25:01;4.63;;;4.17;;
19798;SDS011;10059;59.850;10.454;2023-04-24T11:27:29;1.73;;;1.30;;
19798;SDS011;10059;59.850;10.454;2023-04-24T11:30:01;1.30;;;1.00;;
19798;SDS011;10059;59.850;10.454;2023-04-24T11:32:30;1.43;;;1.10;;
19798;SDS011;10059;59.850;10.454;2023-04-24T11:35:03;1.90;;;0.90;;
19798;SDS011;10059;59.850;10.454;2023-04-24T11:37:35;2.90;;;0.80;;
19798;SDS011;10059;59.850;10.454;2023-04-24T11:40:03;1.57;;;0.80;;
19798;SDS011;10059;59.850;10.454;2023-04-24T11:42:35;0.90;;;0.60;;
19798;SDS011;10059;59.850;10.454;2023-04-24T11:45:07;1.03;;;0.60;;
19798;SDS011;10059;59.850;10.454;2023-04-24T11:47:35;0.80;;;0.73;;
19798;SDS011;10059;59.850;10.454;2023-04-24T11:50:04;1.20;;;0.80;;
19798;SDS011;10059;59.850;10.454;2023-04-24T11:52:33;1.00;;;0.73;;
19798;SDS011;10059;59.850;10.454;2023-04-24T11:55:03;0.60;;;0.60;;
19798;SDS011;10059;59.850;10.454;2023-04-24T11:57:32;0.70;;;0.60;;
19798;SDS011;10059;59.850;10.454;2023-04-24T12:00:01;0.70;;;0.60;;
19798;SDS011;10059;59.850;10.454;2023-04-24T12:02:29;0.93;;;0.70;;
19798;SDS011;10059;59.850;10.454;2023-04-24T12:04:56;2.27;;;1.53;;
19798;SDS011;10059;59.850;10.454;2023-04-24T12:07:24;3.60;;;2.97;;
19798;SDS011;10059;59.850;10.454;2023-04-24T12:09:55;4.60;;;3.30;;
19798;SDS011;10059;59.850;10.454;2023-04-24T12:12:24;1.20;;;0.70;;
19798;SDS011;10059;59.850;10.454;2023-04-24T12:14:53;0.70;;;0.70;;
19798;SDS011;10059;59.850;10.454;2023-04-24T12:17:24;1.40;;;0.90;;
19798;SDS011;10059;59.850;10.454;2023-04-24T12:19:52;1.00;;;0.90;;
19798;SDS011;10059;59.850;10.454;2023-04-24T12:22:25;0.77;;;0.70;;
19798;SDS011;10059;59.850;10.454;2023-04-24T12:24:56;3.53;;;1.43;;
19798;SDS011;10059;59.850;10.454;2023-04-24T12:27:23;2.17;;;1.70;;
19798;SDS011;10059;59.850;10.454;2023-04-24T12:29:51;0.87;;;0.70;;
19798;SDS011;10059;59.850;10.454;2023-04-24T12:32:19;0.50;;;0.50;;
19798;SDS011;10059;59.850;10.454;2023-04-24T12:34:46;0.50;;;0.50;;
19798;SDS011;10059;59.850;10.454;2023-04-24T12:37:13;1.40;;;0.67;;
19798;SDS011;10059;59.850;10.454;2023-04-24T12:39:42;0.30;;;0.30;;
19798;SDS011;10059;59.850;10.454;2023-04-24T12:42:25;0.67;;;0.40;;
19798;SDS011;10059;59.850;10.454;2023-04-24T12:44:55;0.50;;;0.40;;
19798;SDS011;10059;59.850;10.454;2023-04-24T12:47:24;0.70;;;0.33;;
19798;SDS011;10059;59.850;10.454;2023-04-24T12:49:51;1.57;;;0.40;;
19798;SDS011;10059;59.850;10.454;2023-04-24T12:52:18;0.50;;;0.50;;
19798;SDS011;10059;59.850;10.454;2023-04-24T12:54:47;0.87;;;0.80;;
19798;SDS011;10059;59.850;10.454;2023-04-24T12:57:14;0.60;;;0.60;;
19798;SDS011;10059;59.850;10.454;2023-04-24T12:59:40;1.07;;;0.97;;
19798;SDS011;10059;59.850;10.454;2023-04-24T13:02:08;1.10;;;1.00;;
19798;SDS011;10059;59.850;10.454;2023-04-24T13:04:35;0.50;;;0.50;;
19798;SDS011;10059;59.850;10.454;2023-04-24T13:07:02;1.03;;;0.80;;
19798;SDS011;10059;59.850;10.454;2023-04-24T13:09:29;2.27;;;1.73;;
19798;SDS011;10059;59.850;10.454;2023-04-24T13:11:57;1.23;;;0.60;;
19798;SDS011;10059;59.850;10.454;2023-04-24T13:14:25;1.30;;;0.77;;
19798;SDS011;10059;59.850;10.454;2023-04-24T13:16:52;3.10;;;1.60;;
19798;SDS011;10059;59.850;10.454;2023-04-24T13:19:19;1.60;;;1.20;;
19798;SDS011;10059;59.850;10.454;2023-04-24T13:21:46;1.77;;;0.83;;
19798;SDS011;10059;59.850;10.454;2023-04-24T13:24:13;3.23;;;2.20;;
19798;SDS011;10059;59.850;10.454;2023-04-24T13:26:40;1.07;;;0.97;;
19798;SDS011;10059;59.850;10.454;2023-04-24T13:29:09;2.43;;;1.50;;
19798;SDS011;10059;59.850;10.454;2023-04-24T13:31:36;2.70;;;2.47;;
19798;SDS011;10059;59.850;10.454;2023-04-24T13:34:03;1.73;;;1.10;;
19798;SDS011;10059;59.850;10.454;2023-04-24T13:36:30;2.73;;;1.53;;
19798;SDS011;10059;59.850;10.454;2023-04-24T13:38:57;2.67;;;1.60;;
19798;SDS011;10059;59.850;10.454;2023-04-24T13:41:24;1.17;;;0.70;;
19798;SDS011;10059;59.850;10.454;2023-04-24T13:43:50;0.70;;;0.70;;
19798;SDS011;10059;59.850;10.454;2023-04-24T13:46:19;2.83;;;2.17;;
19798;SDS011;10059;59.850;10.454;2023-04-24T13:48:46;0.70;;;0.70;;
19798;SDS011;10059;59.850;10.454;2023-04-24T13:51:13;1.23;;;0.70;;
19798;SDS011;10059;59.850;10.454;2023-04-24T13:53:40;0.80;;;0.73;;
19798;SDS011;10059;59.850;10.454;2023-04-24T13:56:07;2.10;;;1.70;;
19798;SDS011;10059;59.850;10.454;2023-04-24T13:58:34;1.10;;;0.97;;
19798;SDS011;10059;59.850;10.454;2023-04-24T14:01:02;2.57;;;2.30;;
19798;SDS011;10059;59.850;10.454;2023-04-24T14:03:30;3.10;;;2.37;;
19798;SDS011;10059;59.850;10.454;2023-04-24T14:05:57;1.67;;;1.40;;
19798;SDS011;10059;59.850;10.454;2023-04-24T14:08:24;1.67;;;1.10;;
19798;SDS011;10059;59.850;10.454;2023-04-24T14:10:51;2.43;;;1.40;;
19798;SDS011;10059;59.850;10.454;2023-04-24T14:13:18;2.53;;;1.70;;
19798;SDS011;10059;59.850;10.454;2023-04-24T14:15:45;2.30;;;1.10;;
19798;SDS011;10059;59.850;10.454;2023-04-24T14:18:12;0.93;;;0.80;;
19798;SDS011;10059;59.850;10.454;2023-04-24T14:20:40;3.10;;;1.93;;
19798;SDS011;10059;59.850;10.454;2023-04-24T14:23:07;2.30;;;1.90;;
19798;SDS011;10059;59.850;10.454;2023-04-24T14:25:34;2.63;;;2.30;;
19798;SDS011;10059;59.850;10.454;2023-04-24T14:28:01;1.60;;;1.40;;
19798;SDS011;10059;59.850;10.454;2023-04-24T14:30:27;1.10;;;1.00;;
19798;SDS011;10059;59.850;10.454;2023-04-24T14:32:54;5.10;;;2.53;;
19798;SDS011;10059;59.850;10.454;2023-04-24T14:35:21;4.87;;;3.40;;
19798;SDS011;10059;59.850;10.454;2023-04-24T14:37:49;1.57;;;1.30;;
19798;SDS011;10059;59.850;10.454;2023-04-24T14:40:16;2.10;;;1.80;;